Time;durP1;ratioP1;P1;durP2;ratioP2;P2;SDS_P1;SDS_P2;PMS_P1;PMS_P2;Temp;Humidity;BMP_temperature;BMP_pressure;BME280_temperature;BME280_humidity;BME280_pressure;Samples;Min_cycle;Max_cycle;Signal;HPM_P1;HPM_P2
2022/02/16 00:00:39;;;;;;;6.82;1.55;;;11.30;79.60;;;;;;5035239;28;20032;-76
2022/02/16 00:03:05;;;;;;;3.45;1.50;;;11.20;79.60;;;;;;5035363;28;20100;-76
2022/02/16 00:05:30;;;;;;;2.75;1.50;;;11.20;79.60;;;;;;5053167;28;20021;-76
2022/02/16 00:07:56;;;;;;;3.35;1.60;;;11.30;79.70;;;;;;5034932;28;20021;-76
2022/02/16 00:10:22;;;;;;;4.63;1.80;;;11.30;79.70;;;;;;5035111;28;20115;-75
2022/02/16 00:12:47;;;;;;;2.55;1.30;;;11.30;79.80;;;;;;5057080;28;20017;-78
2022/02/16 00:15:14;;;;;;;4.03;1.42;;;11.20;79.80;;;;;;5025765;28;20025;-76
2022/02/16 00:17:41;;;;;;;2.85;1.35;;;11.20;79.80;;;;;;5039210;28;20119;-76
2022/02/16 00:20:08;;;;;;;2.70;1.50;;;11.20;79.90;;;;;;5056687;28;20025;-75
2022/02/16 00:22:34;;;;;;;3.03;1.48;;;11.20;79.90;;;;;;5056975;28;20025;-77
2022/02/16 00:24:59;;;;;;;3.88;1.45;;;11.30;80.00;;;;;;5039003;28;20035;-77
2022/02/16 00:27:25;;;;;;;3.25;1.38;;;11.20;79.90;;;;;;5056659;28;20029;-77
2022/02/16 00:29:51;;;;;;;2.40;1.20;;;11.20;80.00;;;;;;5054201;22;20410;-77
2022/02/16 00:32:16;;;;;;;2.53;1.30;;;11.30;80.10;;;;;;5054432;28;20433;-78
2022/02/16 00:34:42;;;;;;;2.35;1.27;;;11.20;80.20;;;;;;5054650;28;20547;-77
2022/02/16 00:37:08;;;;;;;3.83;1.55;;;11.20;80.10;;;;;;5054535;28;20390;-77
2022/02/16 00:39:33;;;;;;;3.03;1.25;;;11.20;80.10;;;;;;5055494;28;20103;-77
2022/02/16 00:41:59;;;;;;;2.33;1.13;;;11.20;80.10;;;;;;5055064;28;20104;-77
2022/02/16 00:44:25;;;;;;;2.22;1.10;;;11.20;80.70;;;;;;5026850;28;20022;-77
2022/02/16 00:46:51;;;;;;;2.65;1.10;;;11.20;80.10;;;;;;5034301;28;20039;-77
2022/02/16 00:49:18;;;;;;;3.05;1.10;;;11.20;80.20;;;;;;5017708;28;20083;-77
2022/02/16 00:51:44;;;;;;;3.45;1.20;;;11.20;80.30;;;;;;5017957;28;20487;-77
2022/02/16 00:54:10;;;;;;;3.95;1.40;;;11.20;80.20;;;;;;5017911;28;20026;-77
2022/02/16 00:56:36;;;;;;;3.60;1.20;;;11.20;80.30;;;;;;5017742;28;20036;-77
2022/02/16 00:59:02;;;;;;;2.85;1.33;;;11.20;80.30;;;;;;5017703;28;20022;-76
2022/02/16 01:01:27;;;;;;;2.72;1.30;;;11.20;80.40;;;;;;5034011;28;20114;-77
2022/02/16 01:03:53;;;;;;;3.20;1.30;;;11.20;80.40;;;;;;5034526;28;20017;-77
2022/02/16 01:06:18;;;;;;;1.55;1.10;;;11.20;80.40;;;;;;5049902;28;20025;-77
2022/02/16 01:08:44;;;;;;;2.53;1.30;;;11.30;80.40;;;;;;5026775;28;20021;-77
2022/02/16 01:11:09;;;;;;;2.17;1.27;;;11.20;80.30;;;;;;5030075;28;20029;-77
2022/02/16 01:13:35;;;;;;;4.90;1.40;;;11.20;80.40;;;;;;5017537;28;20387;-77
2022/02/16 01:16:01;;;;;;;4.20;1.40;;;11.20;80.40;;;;;;5027440;28;20143;-77
2022/02/16 01:18:26;;;;;;;2.28;1.20;;;11.20;80.50;;;;;;5054976;28;20021;-78
2022/02/16 01:20:52;;;;;;;2.55;1.45;;;11.20;80.60;;;;;;5042658;28;20029;-77
2022/02/16 01:23:17;;;;;;;2.50;1.30;;;11.20;80.50;;;;;;5018096;28;20467;-77
2022/02/16 01:25:43;;;;;;;2.55;1.38;;;11.20;80.60;;;;;;5054938;28;20029;-77
2022/02/16 01:28:09;;;;;;;1.58;1.08;;;11.20;80.60;;;;;;5036898;28;20036;-77
2022/02/16 01:30:34;;;;;;;2.80;1.38;;;11.20;81.10;;;;;;5028344;28;20029;-78
2022/02/16 01:33:00;;;;;;;1.77;1.17;;;11.20;80.60;;;;;;5027453;28;20043;-77
2022/02/16 01:35:25;;;;;;;2.40;1.15;;;11.20;80.70;;;;;;5027880;28;20393;-76
2022/02/16 01:37:51;;;;;;;1.83;1.17;;;11.20;80.70;;;;;;5026184;28;20026;-77
2022/02/16 01:40:16;;;;;;;1.88;1.00;;;11.20;80.70;;;;;;5042837;28;20376;-76
2022/02/16 01:42:42;;;;;;;1.77;1.00;;;11.20;80.80;;;;;;5033462;28;20529;-77
2022/02/16 01:45:09;;;;;;;2.97;1.20;;;11.10;80.70;;;;;;5023852;28;20033;-76
2022/02/16 01:47:37;;;;;;;2.17;1.00;;;11.20;80.70;;;;;;5036456;28;20078;-77
2022/02/16 01:50:03;;;;;;;2.20;0.93;;;11.20;80.90;;;;;;5052244;28;20048;-77
2022/02/16 01:52:28;;;;;;;1.80;1.10;;;11.20;80.80;;;;;;5018419;28;20395;-77
2022/02/16 01:54:54;;;;;;;2.95;1.30;;;11.20;80.90;;;;;;5054572;28;20017;-77
2022/02/16 01:57:20;;;;;;;2.17;1.20;;;11.20;80.90;;;;;;5051841;28;20402;-77
2022/02/16 01:59:48;;;;;;;1.75;0.93;;;11.20;80.90;;;;;;5034162;28;20394;-77
2022/02/16 02:02:13;;;;;;;2.00;1.00;;;11.20;80.90;;;;;;5034222;28;20025;-78
2022/02/16 02:04:39;;;;;;;1.92;0.98;;;11.20;80.90;;;;;;5033204;28;20113;-77
2022/02/16 02:07:04;;;;;;;2.20;1.08;;;11.20;80.90;;;;;;5047057;28;20029;-77
2022/02/16 02:09:30;;;;;;;2.10;0.90;;;11.20;81.00;;;;;;5027189;28;20032;-77
2022/02/16 02:11:55;;;;;;;1.02;0.80;;;11.20;80.90;;;;;;5027825;28;20025;-76
2022/02/16 02:14:21;;;;;;;2.00;1.20;;;11.20;81.00;;;;;;5053967;28;20555;-77
2022/02/16 02:16:47;;;;;;;2.22;1.10;;;11.20;81.00;;;;;;5037079;28;20502;-78
2022/02/16 02:19:15;;;;;;;2.55;1.10;;;11.20;81.00;;;;;;5035463;28;20501;-77
2022/02/16 02:21:40;;;;;;;2.13;1.02;;;11.20;81.00;;;;;;5028812;28;20025;-77
2022/02/16 02:24:06;;;;;;;1.30;0.90;;;11.20;81.60;;;;;;5053845;28;20184;-77
2022/02/16 02:26:32;;;;;;;1.92;1.00;;;11.20;81.10;;;;;;5035774;28;20028;-78
2022/02/16 02:28:57;;;;;;;0.85;0.80;;;11.20;81.10;;;;;;5017508;28;20032;-77
2022/02/16 02:31:27;;;;;;;1.65;0.90;;;11.20;81.10;;;;;;5015343;28;20033;-77
2022/02/16 02:33:53;;;;;;;1.08;0.90;;;11.20;81.10;;;;;;5015121;28;20022;-78
2022/02/16 02:36:18;;;;;;;2.40;1.23;;;11.20;81.10;;;;;;5033668;28;20041;-77
2022/02/16 02:38:44;;;;;;;1.30;0.90;;;11.20;81.10;;;;;;5015557;28;20025;-77
2022/02/16 02:41:09;;;;;;;2.47;1.00;;;11.20;81.60;;;;;;5033409;28;20065;-77
2022/02/16 02:43:39;;;;;;;1.23;0.90;;;11.20;81.20;;;;;;5032079;28;20083;-77
2022/02/16 02:46:05;;;;;;;1.55;1.00;;;11.20;81.20;;;;;;5043986;28;20020;-77
2022/02/16 02:48:31;;;;;;;1.92;0.90;;;11.20;81.20;;;;;;5021373;28;20026;-77
2022/02/16 02:50:56;;;;;;;1.65;1.00;;;11.20;81.10;;;;;;5015506;28;20079;-77
2022/02/16 02:53:22;;;;;;;1.67;0.80;;;11.20;81.20;;;;;;5015775;28;20128;-77
2022/02/16 02:55:48;;;;;;;1.30;0.90;;;11.20;81.20;;;;;;5050072;28;20025;-77
2022/02/16 02:58:14;;;;;;;1.15;0.85;;;11.20;81.20;;;;;;5053037;28;20028;-77
2022/02/16 03:00:40;;;;;;;1.55;0.90;;;11.20;81.20;;;;;;5029371;28;20030;-76
2022/02/16 03:03:06;;;;;;;1.88;0.90;;;11.20;81.20;;;;;;5015415;28;20021;-77
2022/02/16 03:05:32;;;;;;;3.15;0.90;;;11.20;81.20;;;;;;5015475;28;20394;-77
2022/02/16 03:07:57;;;;;;;4.57;1.20;;;11.20;81.20;;;;;;5015530;28;20079;-77
2022/02/16 03:10:23;;;;;;;3.22;1.10;;;11.20;81.10;;;;;;5032790;28;20035;-78
2022/02/16 03:12:48;;;;;;;7.80;1.10;;;11.20;81.10;;;;;;5015284;28;20025;-78
2022/02/16 03:15:14;;;;;;;11.57;1.50;;;11.20;81.20;;;;;;5015155;28;20057;-77
2022/02/16 03:17:39;;;;;;;10.10;1.30;;;11.20;81.20;;;;;;5052284;28;20067;-77
2022/02/16 03:20:07;;;;;;;10.32;1.70;;;11.20;81.30;;;;;;5037030;28;20055;-76
2022/02/16 03:22:33;;;;;;;7.22;1.02;;;11.20;81.30;;;;;;5034620;28;20044;-77
2022/02/16 03:25:01;;;;;;;7.45;1.40;;;11.20;81.40;;;;;;5052648;28;20478;-77
2022/02/16 03:27:27;;;;;;;6.45;1.10;;;11.20;81.40;;;;;;5044869;28;20160;-76
2022/02/16 03:29:52;;;;;;;5.70;1.10;;;11.20;81.50;;;;;;5016569;28;20120;-78
2022/02/16 03:32:18;;;;;;;9.57;1.50;;;11.20;81.50;;;;;;5034897;28;20114;-77
2022/02/16 03:34:44;;;;;;;14.18;1.90;;;11.20;81.50;;;;;;5034644;28;20032;-77
2022/02/16 03:37:09;;;;;;;6.93;1.30;;;11.20;81.50;;;;;;5034583;28;20094;-77
2022/02/16 03:39:35;;;;;;;7.78;1.30;;;11.20;81.50;;;;;;5027059;28;20033;-78
2022/02/16 03:42:01;;;;;;;7.95;1.20;;;11.20;81.50;;;;;;5022060;28;20087;-77
2022/02/16 03:44:26;;;;;;;5.93;1.05;;;11.20;81.50;;;;;;5064453;28;20442;-78
2022/02/16 03:46:52;;;;;;;6.53;0.95;;;11.20;81.50;;;;;;5054333;28;20036;-77
2022/02/16 03:49:18;;;;;;;4.00;1.33;;;11.20;81.60;;;;;;5050699;28;20021;-76
2022/02/16 03:51:44;;;;;;;4.82;1.00;;;11.20;81.70;;;;;;5032463;28;20026;-77
2022/02/16 03:54:10;;;;;;;4.45;0.88;;;11.20;81.70;;;;;;5050147;28;20032;-78
2022/02/16 03:56:36;;;;;;;3.33;0.93;;;11.20;81.70;;;;;;5034435;28;20025;-77
2022/02/16 03:59:02;;;;;;;2.95;1.00;;;11.20;81.70;;;;;;5034198;28;20024;-77
2022/02/16 04:01:27;;;;;;;5.68;1.10;;;11.20;81.70;;;;;;5052324;28;20029;-77
2022/02/16 04:03:53;;;;;;;1.75;0.93;;;11.20;81.80;;;;;;5047168;28;20029;-77
2022/02/16 04:06:18;;;;;;;3.92;1.00;;;11.20;81.80;;;;;;5030943;28;20561;-77
2022/02/16 04:08:45;;;;;;;3.90;0.90;;;11.20;81.90;;;;;;5031865;28;20048;-77
2022/02/16 04:11:11;;;;;;;2.83;0.90;;;11.20;81.90;;;;;;5034277;28;20087;-77
2022/02/16 04:13:36;;;;;;;3.08;1.00;;;11.20;81.90;;;;;;5034573;28;20048;-77
2022/02/16 04:16:02;;;;;;;2.33;0.80;;;11.20;81.90;;;;;;5032260;28;20463;-76
2022/02/16 04:18:28;;;;;;;2.85;1.05;;;11.20;81.90;;;;;;5032278;28;20056;-77
2022/02/16 04:20:53;;;;;;;1.10;0.90;;;11.20;82.00;;;;;;5014356;28;20061;-77
2022/02/16 04:23:19;;;;;;;2.28;0.98;;;11.20;82.00;;;;;;5032485;28;20026;-76
2022/02/16 04:25:44;;;;;;;3.25;0.90;;;11.20;82.10;;;;;;5030530;28;20017;-77
2022/02/16 04:28:10;;;;;;;4.50;1.08;;;11.20;82.00;;;;;;5014648;28;20029;-77
2022/02/16 04:30:35;;;;;;;1.60;0.90;;;11.20;82.10;;;;;;5013584;28;20129;-77
2022/02/16 04:33:01;;;;;;;1.88;0.85;;;11.20;82.10;;;;;;5042441;28;20021;-77
2022/02/16 04:35:26;;;;;;;2.13;0.90;;;11.20;82.10;;;;;;5034320;28;20025;-77
2022/02/16 04:37:52;;;;;;;3.38;1.13;;;11.20;82.10;;;;;;5014433;28;20079;-77
2022/02/16 04:40:18;;;;;;;2.50;0.90;;;11.20;82.10;;;;;;5041778;28;20052;-77
2022/02/16 04:42:44;;;;;;;5.35;1.00;;;11.20;82.20;;;;;;5014409;28;20053;-77
2022/02/16 04:45:09;;;;;;;4.28;1.00;;;11.20;82.30;;;;;;5033783;28;20403;-77
2022/02/16 04:47:35;;;;;;;2.25;1.05;;;11.20;82.30;;;;;;5034363;28;20108;-77
2022/02/16 04:50:03;;;;;;;2.10;0.88;;;11.20;82.30;;;;;;5051905;28;20027;-77
2022/02/16 04:52:34;;;;;;;1.40;0.80;;;11.20;82.30;;;;;;5034246;28;20028;-78
2022/02/16 04:55:11;;;;;;;1.58;0.90;;;11.20;82.30;;;;;;5031947;28;20024;-77
2022/02/16 04:57:38;;;;;;;1.50;0.90;;;11.20;82.30;;;;;;5016149;28;20099;-77
2022/02/16 05:00:06;;;;;;;2.80;1.00;;;11.20;82.30;;;;;;5017704;28;20030;-77
2022/02/16 05:02:32;;;;;;;2.45;0.95;;;11.20;82.30;;;;;;5017772;28;20095;-77
2022/02/16 05:04:57;;;;;;;2.03;0.90;;;11.20;82.30;;;;;;5042410;28;20022;-77
2022/02/16 05:07:23;;;;;;;2.40;1.05;;;11.20;82.40;;;;;;5043161;28;20104;-77
2022/02/16 05:09:49;;;;;;;3.88;1.13;;;11.20;82.40;;;;;;5037084;28;20052;-77
2022/02/16 05:12:15;;;;;;;1.83;1.00;;;11.20;82.40;;;;;;5037417;28;20017;-76
2022/02/16 05:14:41;;;;;;;1.70;0.90;;;11.20;82.40;;;;;;5037505;28;20025;-77
2022/02/16 05:17:08;;;;;;;2.60;0.93;;;11.20;82.50;;;;;;5023239;28;20029;-77
2022/02/16 05:19:33;;;;;;;1.98;1.00;;;11.20;82.50;;;;;;5040376;28;20034;-77
2022/02/16 05:21:59;;;;;;;3.58;1.23;;;11.20;82.50;;;;;;5035068;28;20021;-77
2022/02/16 05:24:24;;;;;;;1.98;1.02;;;11.20;82.50;;;;;;5020508;28;20093;-77
2022/02/16 05:26:50;;;;;;;2.63;1.20;;;11.20;82.60;;;;;;5037214;28;20551;-77
2022/02/16 05:29:16;;;;;;;2.60;1.10;;;11.20;82.60;;;;;;5022303;28;20048;-76
2022/02/16 05:31:41;;;;;;;3.70;1.30;;;11.20;82.60;;;;;;5060545;28;20068;-77
2022/02/16 05:34:07;;;;;;;2.83;1.10;;;11.20;82.60;;;;;;5065822;28;20037;-77
2022/02/16 05:36:33;;;;;;;4.28;1.20;;;11.20;82.70;;;;;;5036256;28;20032;-76
2022/02/16 05:38:58;;;;;;;2.53;1.10;;;11.20;83.20;;;;;;5034756;28;20032;-77
2022/02/16 05:41:24;;;;;;;2.05;1.13;;;11.20;82.70;;;;;;5036974;28;20433;-77
2022/02/16 05:43:50;;;;;;;4.72;1.05;;;11.20;82.70;;;;;;5031588;28;20067;-77
2022/02/16 05:46:16;;;;;;;1.52;0.90;;;11.20;82.70;;;;;;5054600;28;20532;-77
2022/02/16 05:48:42;;;;;;;1.48;1.23;;;11.20;82.70;;;;;;5036384;28;20032;-77
2022/02/16 05:51:07;;;;;;;1.42;0.93;;;11.20;82.70;;;;;;5035196;28;20027;-78
2022/02/16 05:53:33;;;;;;;2.35;1.30;;;11.20;82.70;;;;;;5045445;28;20026;-76
2022/02/16 05:55:59;;;;;;;2.95;1.20;;;11.20;82.80;;;;;;5016904;28;20028;-76
2022/02/16 05:58:24;;;;;;;1.88;1.20;;;11.20;82.80;;;;;;5030538;28;20021;-77
2022/02/16 06:00:50;;;;;;;1.35;1.00;;;11.20;82.80;;;;;;5036252;28;20482;-77
2022/02/16 06:03:15;;;;;;;1.05;0.95;;;11.20;82.90;;;;;;5052823;28;20041;-76
2022/02/16 06:05:41;;;;;;;1.27;1.05;;;11.20;83.00;;;;;;5018940;28;20086;-77
2022/02/16 06:08:06;;;;;;;1.65;1.00;;;11.20;83.00;;;;;;5037548;28;20112;-76
2022/02/16 06:10:32;;;;;;;2.25;1.20;;;11.10;83.00;;;;;;5026913;28;20475;-76
2022/02/16 06:13:01;;;;;;;2.42;1.10;;;11.20;83.00;;;;;;5037297;28;20708;-76
2022/02/16 06:15:29;;;;;;;2.05;1.20;;;11.20;83.10;;;;;;5020356;28;20025;-75
2022/02/16 06:17:55;;;;;;;1.42;1.17;;;11.20;83.10;;;;;;5042994;28;20048;-75
2022/02/16 06:20:22;;;;;;;2.65;1.20;;;11.20;83.10;;;;;;5048329;28;20554;-76
2022/02/16 06:22:48;;;;;;;2.40;1.20;;;11.20;83.10;;;;;;5052136;28;20055;-77
2022/02/16 06:25:13;;;;;;;6.55;1.40;;;11.10;83.10;;;;;;5042114;28;20032;-77
2022/02/16 06:27:39;;;;;;;12.63;1.85;;;11.20;83.00;;;;;;5034467;28;20021;-79
2022/02/16 06:30:07;;;;;;;7.22;1.60;;;11.20;83.00;;;;;;5051456;28;20033;-79
2022/02/16 06:32:33;;;;;;;8.63;1.70;;;11.10;83.10;;;;;;5052197;28;20032;-79
2022/02/16 06:34:59;;;;;;;7.85;1.98;;;11.10;83.30;;;;;;5051875;28;20035;-76
2022/02/16 06:37:24;;;;;;;9.85;1.60;;;11.10;83.40;;;;;;5051136;28;20102;-77
2022/02/16 06:39:50;;;;;;;9.63;1.60;;;11.10;83.80;;;;;;5049267;28;20449;-77
2022/02/16 06:42:16;;;;;;;5.18;1.25;;;11.10;84.20;;;;;;5049004;28;20478;-77
2022/02/16 06:44:41;;;;;;;4.80;1.30;;;11.00;83.80;;;;;;5031142;28;20036;-77
2022/02/16 06:47:08;;;;;;;3.63;1.20;;;11.00;83.80;;;;;;5048826;28;20113;-78
2022/02/16 06:49:34;;;;;;;6.63;1.27;;;11.10;83.90;;;;;;5048625;28;20017;-76
2022/02/16 06:51:59;;;;;;;8.93;1.55;;;11.10;83.90;;;;;;5030916;28;20038;-75
2022/02/16 06:54:25;;;;;;;5.07;1.38;;;11.10;83.90;;;;;;5049082;28;20482;-76
2022/02/16 06:56:51;;;;;;;3.97;1.20;;;11.00;83.90;;;;;;5032418;28;20032;-77
2022/02/16 06:59:16;;;;;;;8.93;1.55;;;11.00;83.90;;;;;;5051972;28;20467;-76
2022/02/16 07:01:42;;;;;;;2.83;1.20;;;11.10;84.00;;;;;;5050585;28;20051;-76
2022/02/16 07:04:07;;;;;;;4.43;1.20;;;11.00;84.00;;;;;;5024317;28;20052;-76
2022/02/16 07:06:33;;;;;;;2.50;1.00;;;11.10;84.10;;;;;;5053190;28;20048;-77
2022/02/16 07:08:59;;;;;;;1.67;1.00;;;11.00;84.10;;;;;;5071237;28;20119;-78
2022/02/16 07:11:24;;;;;;;4.22;1.17;;;11.00;84.20;;;;;;5071462;28;20107;-77
2022/02/16 07:13:50;;;;;;;2.10;0.98;;;11.00;84.20;;;;;;5071903;28;20023;-79
2022/02/16 07:16:16;;;;;;;1.50;0.85;;;11.00;84.20;;;;;;5053359;28;20082;-77
2022/02/16 07:18:43;;;;;;;1.55;0.93;;;11.00;84.20;;;;;;5071261;28;20490;-78
2022/02/16 07:21:09;;;;;;;2.25;0.90;;;11.00;84.20;;;;;;5014561;28;20124;-78
2022/02/16 07:23:38;;;;;;;3.65;1.00;;;11.00;84.20;;;;;;5031728;28;20108;-78
2022/02/16 07:26:05;;;;;;;1.63;0.85;;;11.00;84.20;;;;;;5031185;28;20031;-77
2022/02/16 07:28:30;;;;;;;2.17;0.93;;;11.00;84.20;;;;;;5013510;28;20036;-78
2022/02/16 07:30:56;;;;;;;1.55;0.80;;;11.00;84.20;;;;;;5012957;28;20128;-78
2022/02/16 07:33:22;;;;;;;1.88;0.90;;;11.00;84.20;;;;;;5030848;28;20097;-77
2022/02/16 07:35:48;;;;;;;1.33;0.70;;;11.00;84.20;;;;;;5030610;28;20029;-77
2022/02/16 07:38:14;;;;;;;1.42;0.90;;;11.00;84.30;;;;;;5031615;28;20028;-79
2022/02/16 07:40:41;;;;;;;2.55;0.80;;;11.00;84.30;;;;;;5013770;28;20036;-78
2022/02/16 07:43:07;;;;;;;2.70;0.90;;;11.00;84.30;;;;;;5044906;28;20067;-78
2022/02/16 07:45:33;;;;;;;1.10;0.73;;;11.00;84.40;;;;;;5033815;28;20455;-78
2022/02/16 07:48:00;;;;;;;1.30;0.60;;;11.00;84.40;;;;;;5038976;28;20042;-77
2022/02/16 07:50:26;;;;;;;1.13;0.70;;;11.00;84.40;;;;;;5070980;28;20118;-79
2022/02/16 07:52:52;;;;;;;1.27;0.70;;;11.00;84.40;;;;;;5087353;23;20052;-78
2022/02/16 07:55:19;;;;;;;1.40;0.70;;;11.00;84.30;;;;;;5071980;28;20077;-79
2022/02/16 07:57:45;;;;;;;3.25;0.70;;;11.00;84.20;;;;;;5053166;28;20029;-78
2022/02/16 08:00:11;;;;;;;2.80;0.90;;;11.10;84.20;;;;;;5053820;28;20036;-78
2022/02/16 08:02:36;;;;;;;2.45;0.85;;;11.10;84.20;;;;;;5072042;28;20135;-78
2022/02/16 08:05:02;;;;;;;1.70;0.80;;;11.20;84.30;;;;;;5071832;28;20056;-76
2022/02/16 08:07:29;;;;;;;2.28;0.90;;;11.10;84.30;;;;;;5053430;28;20448;-76
2022/02/16 08:09:54;;;;;;;1.10;0.60;;;11.00;84.30;;;;;;5071806;28;20016;-79
2022/02/16 08:12:20;;;;;;;1.27;0.70;;;11.00;84.30;;;;;;5053963;28;20422;-76
2022/02/16 08:14:45;;;;;;;1.25;0.68;;;11.10;84.40;;;;;;5054214;28;20478;-76
2022/02/16 08:17:11;;;;;;;1.92;0.70;;;11.00;84.40;;;;;;5054050;28;20028;-77
2022/02/16 08:19:36;;;;;;;2.58;0.70;;;11.10;84.50;;;;;;5053751;28;20032;-77
2022/02/16 08:22:02;;;;;;;2.17;0.60;;;11.00;84.50;;;;;;5053805;28;20032;-77
2022/02/16 08:24:29;;;;;;;1.83;0.65;;;11.10;84.60;;;;;;5071743;28;20027;-77
2022/02/16 08:26:55;;;;;;;1.55;0.82;;;11.10;84.70;;;;;;5071761;28;20112;-76
2022/02/16 08:29:24;;;;;;;2.95;0.70;;;11.00;84.70;;;;;;5053578;28;20024;-77
2022/02/16 08:31:50;;;;;;;0.95;0.60;;;11.10;84.80;;;;;;5054360;28;20486;-77
2022/02/16 08:34:15;;;;;;;1.83;0.60;;;11.00;84.70;;;;;;5057447;28;20028;-76
2022/02/16 08:36:41;;;;;;;1.80;0.57;;;11.00;84.70;;;;;;5057586;28;20043;-77
2022/02/16 08:39:06;;;;;;;2.20;0.60;;;11.10;84.90;;;;;;5057174;28;20021;-77
2022/02/16 08:41:32;;;;;;;1.83;0.70;;;11.10;84.90;;;;;;5057217;28;20028;-77
2022/02/16 08:43:58;;;;;;;1.35;0.57;;;11.10;84.90;;;;;;5057410;28;20021;-76
2022/02/16 08:46:23;;;;;;;1.08;0.60;;;11.10;84.90;;;;;;5075109;28;20107;-76
2022/02/16 08:48:49;;;;;;;0.85;0.60;;;11.00;85.00;;;;;;5056981;28;20032;-76
2022/02/16 08:51:15;;;;;;;1.50;0.50;;;11.10;85.00;;;;;;5057064;28;20459;-77
2022/02/16 08:53:41;;;;;;;0.75;0.50;;;11.00;85.10;;;;;;5075118;28;20035;-78
2022/02/16 08:56:07;;;;;;;1.73;0.60;;;11.00;85.20;;;;;;5057073;28;20024;-76
2022/02/16 08:58:32;;;;;;;0.80;0.50;;;11.10;85.30;;;;;;5056935;28;20031;-76
2022/02/16 09:00:58;;;;;;;1.60;0.50;;;11.10;85.30;;;;;;5075571;28;20020;-77
2022/02/16 09:03:25;;;;;;;0.63;0.50;;;11.10;85.40;;;;;;5074708;28;20394;-76
2022/02/16 09:05:51;;;;;;;1.02;0.45;;;11.10;85.40;;;;;;5074976;28;20029;-77
2022/02/16 09:08:17;;;;;;;1.00;0.52;;;11.10;85.50;;;;;;5057236;28;20021;-77
2022/02/16 09:10:43;;;;;;;1.33;0.57;;;11.10;85.40;;;;;;5056556;28;20021;-76
2022/02/16 09:13:09;;;;;;;1.40;0.60;;;11.10;86.10;;;;;;5074503;28;20059;-77
2022/02/16 09:15:35;;;;;;;0.98;0.60;;;11.10;85.70;;;;;;5074740;28;20028;-76
2022/02/16 09:18:02;;;;;;;1.42;0.60;;;11.10;85.70;;;;;;5056650;28;20052;-76
2022/02/16 09:20:27;;;;;;;2.33;0.70;;;11.10;85.80;;;;;;5074606;28;20110;-77
2022/02/16 09:22:53;;;;;;;1.08;0.60;;;11.10;85.80;;;;;;5057078;28;20032;-77
2022/02/16 09:25:20;;;;;;;1.08;0.70;;;11.10;85.90;;;;;;5057237;28;20024;-77
2022/02/16 09:27:47;;;;;;;1.33;0.80;;;11.00;86.00;;;;;;5057071;28;20028;-77
2022/02/16 09:30:13;;;;;;;1.27;0.70;;;11.10;86.10;;;;;;5056966;28;20574;-77
2022/02/16 09:32:38;;;;;;;1.52;0.80;;;11.10;86.20;;;;;;5074530;28;20052;-76
2022/02/16 09:35:05;;;;;;;1.25;0.90;;;11.10;86.30;;;;;;5074415;28;20052;-77
2022/02/16 09:37:31;;;;;;;1.70;0.80;;;11.10;86.30;;;;;;5056456;28;20035;-77
2022/02/16 09:39:57;;;;;;;2.70;0.80;;;11.10;86.30;;;;;;5056151;28;20107;-76
2022/02/16 09:42:23;;;;;;;1.40;0.80;;;11.10;86.40;;;;;;5055899;28;20029;-77
2022/02/16 09:45:04;;;;;;;1.70;0.90;;;11.10;86.30;;;;;;5056540;28;20028;-78
2022/02/16 09:47:32;;;;;;;1.52;1.00;;;11.10;86.50;;;;;;5056593;28;20021;-78
2022/02/16 09:49:59;;;;;;;1.15;0.98;;;11.10;86.30;;;;;;5073626;28;20024;-76
2022/02/16 09:52:25;;;;;;;2.40;1.10;;;11.10;86.50;;;;;;5055769;28;20055;-77
2022/02/16 09:54:51;;;;;;;1.45;1.08;;;11.10;86.50;;;;;;5055933;28;20017;-77
2022/02/16 09:57:17;;;;;;;1.83;1.10;;;11.10;86.60;;;;;;5056321;28;20025;-77
2022/02/16 09:59:43;;;;;;;1.85;1.20;;;11.10;86.70;;;;;;5055726;28;20048;-77
2022/02/16 10:02:12;;;;;;;1.58;1.05;;;11.10;86.60;;;;;;5056150;28;20027;-78
2022/02/16 10:04:40;;;;;;;1.92;1.30;;;11.10;86.70;;;;;;5056364;28;20455;-77
2022/02/16 10:07:46;;;;;;;1.38;1.10;;;11.10;86.80;;;;;;5056051;28;20028;-76
2022/02/16 10:10:16;;;;;;;2.45;1.42;;;11.20;86.90;;;;;;4972464;28;20049;-76
2022/02/16 10:12:48;;;;;;;2.65;1.50;;;11.20;86.80;;;;;;4972843;28;20033;-76
2022/02/16 10:15:23;;;;;;;2.55;1.20;;;11.10;86.90;;;;;;5011087;28;20032;-76
2022/02/16 10:18:03;;;;;;;1.88;1.38;;;11.10;86.90;;;;;;5055523;28;20020;-77
2022/02/16 10:20:28;;;;;;;2.60;1.50;;;11.10;87.00;;;;;;5073203;28;20519;-77
2022/02/16 10:22:56;;;;;;;2.83;1.50;;;11.10;87.60;;;;;;5055717;28;20123;-77
2022/02/16 10:25:27;;;;;;;2.75;1.60;;;11.10;87.10;;;;;;5055672;28;20024;-77
2022/02/16 10:28:18;;;;;;;2.22;1.48;;;11.10;87.20;;;;;;5055856;28;20075;-77
2022/02/16 10:30:55;;;;;;;;;;;11.10;87.40;;;;;;5056002;28;20052;-77
2022/02/16 10:33:25;;;;;;;3.42;1.90;;;11.10;87.40;;;;;;5073662;28;19909;-77
2022/02/16 10:36:03;;;;;;;3.28;1.80;;;11.10;87.20;;;;;;5073541;28;20023;-77
2022/02/16 10:38:30;;;;;;;4.07;2.28;;;11.10;87.10;;;;;;5055246;28;20378;-78
2022/02/16 10:41:00;;;;;;;3.58;2.10;;;11.10;87.30;;;;;;5072982;28;20103;-77
2022/02/16 10:43:37;;;;;;;4.10;2.40;;;11.10;87.30;;;;;;5055391;28;20020;-77
2022/02/16 10:46:15;;;;;;;3.78;2.10;;;11.10;87.40;;;;;;5055299;28;20059;-78
2022/02/16 10:48:41;;;;;;;3.88;2.17;;;11.10;87.50;;;;;;5055008;28;20024;-77
2022/02/16 10:51:16;;;;;;;3.83;2.28;;;11.10;87.50;;;;;;5072809;28;20025;-77
2022/02/16 10:53:42;;;;;;;5.18;2.40;;;11.10;87.70;;;;;;5055274;28;20035;-77
2022/02/16 10:56:07;;;;;;;4.05;2.35;;;11.10;87.70;;;;;;5072563;28;20389;-77
2022/02/16 10:58:33;;;;;;;3.92;2.30;;;11.10;87.70;;;;;;5055289;28;20078;-78
2022/02/16 11:01:01;;;;;;;4.53;2.40;;;11.10;87.80;;;;;;5055207;28;20074;-77
2022/02/16 11:03:32;;;;;;;4.03;2.40;;;11.10;87.70;;;;;;5072674;28;20074;-77
2022/02/16 11:06:02;;;;;;;4.30;2.60;;;11.10;88.10;;;;;;5055285;28;20029;-77
2022/02/16 11:08:31;;;;;;;4.43;2.58;;;11.10;88.00;;;;;;5055100;28;20025;-78
2022/02/16 11:10:57;;;;;;;4.13;2.38;;;11.10;88.30;;;;;;5054815;28;20455;-77
2022/02/16 11:13:27;;;;;;;4.53;2.65;;;11.10;88.30;;;;;;5072859;28;20016;-77
2022/02/16 11:15:53;;;;;;;4.63;2.78;;;11.10;88.30;;;;;;5054712;28;20477;-78
2022/02/16 11:18:26;;;;;;;5.03;2.80;;;11.10;88.10;;;;;;5055010;28;20498;-77
2022/02/16 11:21:09;;;;;;;4.85;2.72;;;11.10;88.20;;;;;;5054223;28;20028;-76
2022/02/16 11:23:52;;;;;;;4.40;2.40;;;11.10;88.10;;;;;;5054446;28;20028;-77
2022/02/16 11:26:38;;;;;;;4.45;2.70;;;11.10;88.10;;;;;;5072956;28;20020;-77
2022/02/16 11:29:26;;;;;;;4.55;2.67;;;11.10;88.30;;;;;;5072054;28;20082;-76
2022/02/16 11:32:15;;;;;;;4.80;2.40;;;11.10;88.30;;;;;;5072076;28;20083;-77
2022/02/16 11:34:41;;;;;;;4.60;2.45;;;11.10;88.30;;;;;;5059418;28;20088;-80
2022/02/16 11:37:07;;;;;;;4.25;2.25;;;11.10;88.30;;;;;;5072171;28;20040;-79
2022/02/16 11:39:52;;;;;;;4.78;2.60;;;11.10;88.30;;;;;;5072114;28;20389;-76
2022/02/16 11:42:20;;;;;;;4.03;2.45;;;11.10;88.30;;;;;;5054276;28;20021;-76
2022/02/16 11:44:52;;;;;;;4.60;2.53;;;11.10;88.30;;;;;;5054118;28;20477;-79
2022/02/16 11:47:36;;;;;;;3.97;2.38;;;11.10;88.00;;;;;;5071828;28;20484;-77
2022/02/16 11:50:28;;;;;;;4.22;2.50;;;11.10;88.20;;;;;;5053749;28;20506;-79
2022/02/16 11:52:55;;;;;;;4.43;2.50;;;11.20;88.40;;;;;;5053845;28;20037;-78
2022/02/16 11:55:36;;;;;;;4.63;2.33;;;11.10;88.40;;;;;;5054149;28;20025;-76
2022/02/16 11:58:01;;;;;;;3.92;2.20;;;11.10;88.50;;;;;;5054122;28;20109;-77
2022/02/16 12:00:32;;;;;;;3.78;2.30;;;11.10;89.20;;;;;;5071653;28;20052;-77
2022/02/16 12:03:05;;;;;;;3.90;2.40;;;11.10;88.70;;;;;;5072013;28;20509;-77
2022/02/16 12:05:57;;;;;;;4.65;2.45;;;11.10;88.70;;;;;;5054008;28;20537;-77
2022/02/16 12:08:34;;;;;;;4.15;2.30;;;11.20;88.90;;;;;;5075941;28;20032;-76
2022/02/16 12:11:28;;;;;;;3.50;2.20;;;11.10;88.90;;;;;;5075861;28;20104;-77
2022/02/16 12:14:11;;;;;;;3.80;2.40;;;11.10;88.70;;;;;;5075798;28;20054;-78
2022/02/16 12:16:51;;;;;;;4.35;2.80;;;11.10;89.00;;;;;;5058083;28;20032;-77
2022/02/16 12:19:19;;;;;;;4.00;2.50;;;11.10;88.90;;;;;;5057778;28;20500;-76
2022/02/16 12:21:51;;;;;;;4.55;2.42;;;11.10;89.00;;;;;;5075838;28;20017;-76
2022/02/16 12:24:20;;;;;;;4.68;2.63;;;11.10;88.80;;;;;;5075814;28;20021;-77
2022/02/16 12:26:49;;;;;;;3.92;2.33;;;11.20;89.00;;;;;;5057623;28;20028;-77
2022/02/16 12:29:23;;;;;;;4.30;2.47;;;11.20;89.30;;;;;;5075442;28;20078;-76
2022/02/16 12:31:52;;;;;;;4.10;2.60;;;11.20;89.30;;;;;;5057395;28;20024;-76
2022/02/16 12:34:20;;;;;;;5.50;2.90;;;11.10;89.30;;;;;;5075763;28;20021;-77
2022/02/16 12:36:54;;;;;;;4.57;2.90;;;11.20;89.40;;;;;;5075382;28;20020;-77
2022/02/16 12:39:20;;;;;;;4.57;2.78;;;11.20;89.60;;;;;;5075468;28;20020;-76
2022/02/16 12:41:49;;;;;;;3.83;2.40;;;11.20;89.10;;;;;;5075779;28;20083;-76
2022/02/16 12:44:18;;;;;;;4.35;2.50;;;11.10;89.30;;;;;;5075241;28;20043;-77
2022/02/16 12:46:50;;;;;;;4.65;2.55;;;11.10;89.30;;;;;;5075132;28;20408;-77
2022/02/16 12:49:23;;;;;;;4.40;2.65;;;11.10;89.50;;;;;;5057341;28;20045;-78